Frazier Park, CA

9:49 AM PDT on April 25, 2015 (GMT -0700)
Pinion Pines | | Change Station
CLOSE
Current Station
Personal Weather Station
Location: Frazier Park, CA
Elevation: 5538 ft
Nearby Weather Stations
Active Advisory: Wind Advisory Active Notice: Public Information Statement

Elev 5538 ft 34.83 °N, 119.04 °W | Updated 41 seconds ago

Overcast
Overcast
42.4 °F
Feels Like 36 °F
N
12.8
Wind Variable Wind from West
Gusts 17.5 mph

Today
High -- | Low -- °F
--% Chance of Precip.
Yesterday
High -- | Low -- °F
Precip. -- in
6:12 AM 7:36 PM
Waxing Crescent, 47% visible
Pressure 29.96 in
Visibility 10.0 miles
Clouds Scattered Clouds 3000 ft
Mostly Cloudy 3800 ft
Windchill 36 °F
Dew Point 39 °F
Humidity 89%
Rainfall 0.00 in
Snow Depth Not available.
UV 3.0 out of 12
Pollen 7.80 out of 12
Air Quality Not available.
Flu Activity Sporadic
SPECI KSDB 251607Z AUTO 21008KT 10SM SCT030 BKN038 09/02 A2996 RMK AO2 T00890017

More Conditions Fewer Conditions

Pressure 29.96 in
Visibility 10.0 miles
Clouds Scattered Clouds 3000 ft
Mostly Cloudy 3800 ft
Windchill 36 °F
Dew Point 39 °F
Humidity 89%
Rainfall 0.00 in
Snow Depth Not available.
UV 3.0 out of 12
Pollen 7.80 out of 12
Air Quality Not available.
Flu Activity Sporadic
SPECI KSDB 251607Z AUTO 21008KT 10SM SCT030 BKN038 09/02 A2996 RMK AO2 T00890017

More Conditions Fewer Conditions

10-Day Weather Forecast

Almanac

Astronomy

Apr. 25, 2015 Rise Set
Actual Time
Civil Twilight
Nautical Twilight
Astronomical Twilight
Moon
Length of Visible Light
Length of Day
Tomorrow will be .
, % of the Moon is Illuminated

Today's Extremes

State Highs State Lows

Community

WunderPhotos

Upload Photos

1,816,737 photos uploaded!

WunderBlogs® & News

Nearby

Air Quality

  Air Quality AQ Index Pollutant
Not available.

Snow Depth

Station Depth Elevation

Earthquake Activity

City Distance Mag. Time & Date
Minimum magnitude displayed is 2.5.

Coastal Water Temperatures

Place Temperature

Stations

Nearby Weather Stations

Station Location Temp. Windchill Dew Point Humidity Wind Precip. Elev Updated Type
                   
Wind Advisory
Statement as of 3:58 AM PDT on April 25, 2015

... Wind Advisory remains in effect until 11 PM PDT this evening...

* winds... west 25 to 40 mph with gusts up to 55 mph. Gusts as high
as 70 mph possible right below Walker Pass and Tehachapi Pass in
the vicinity of Mojave.

* Timing... continuing through late Saturday evening.

* Impacts... difficulty driving especially for high profile
vehicles on highways 14... 58 and 178 and U.S. 395.
Additionally... blowing dust will restrict visibility to less
than a mile in some locations.

Precautionary/preparedness actions...

A Wind Advisory means that winds of greater than 45 mph are
expected. Winds this strong can make driving difficult...
especially for high profile vehicles. Use extra caution.


Durfee